createdAt,value
2016-08-24T00:00:47.416Z,1165.47
2016-08-24T00:01:47.393Z,1165.42
2016-08-24T00:02:47.371Z,1165.34
2016-08-24T00:03:47.392Z,1165.24
2016-08-24T00:04:47.374Z,1165.2
2016-08-24T00:05:47.387Z,1165.16
2016-08-24T00:06:47.431Z,1164.98
2016-08-24T00:07:47.372Z,1165.02
2016-08-24T00:08:47.368Z,1164.96
2016-08-24T00:09:47.385Z,1164.93
2016-08-24T00:10:47.387Z,1164.94
2016-08-24T00:11:47.375Z,1164.84
2016-08-24T00:12:47.689Z,1164.89
2016-08-24T00:13:47.373Z,1164.78
2016-08-24T00:14:47.385Z,1164.85
2016-08-24T00:15:47.419Z,1164.73
2016-08-24T00:16:47.391Z,1164.7
2016-08-24T00:17:47.387Z,1164.67
2016-08-24T00:18:47.386Z,1164.64
2016-08-24T00:19:47.401Z,1164.55
2016-08-24T00:20:47.394Z,1164.43
2016-08-24T00:21:47.401Z,1164.27
2016-08-24T00:22:47.408Z,1164.18
2016-08-24T00:23:47.400Z,1164.09
2016-08-24T00:24:47.389Z,1164.01
2016-08-24T00:25:47.399Z,1163.83
2016-08-24T00:26:47.399Z,1163.83
2016-08-24T00:27:47.441Z,1163.8
2016-08-24T00:28:47.389Z,1163.68
2016-08-24T00:29:47.398Z,1163.75
2016-08-24T00:30:47.402Z,1163.71
2016-08-24T00:31:47.400Z,1163.61
2016-08-24T00:32:47.392Z,1163.48
2016-08-24T00:33:47.400Z,1163.48
2016-08-24T00:34:47.401Z,1163.28
2016-08-24T00:35:47.400Z,1163.25
2016-08-24T00:36:47.405Z,1163.23
2016-08-24T00:37:47.400Z,1163.2
2016-08-24T00:38:47.402Z,1163
2016-08-24T00:39:47.399Z,1162.92
2016-08-24T00:40:47.418Z,1162.85
2016-08-24T00:41:47.409Z,1162.69
2016-08-24T00:42:47.397Z,1162.69
2016-08-24T00:43:47.406Z,1162.56
2016-08-24T00:44:47.431Z,1162.38
2016-08-24T00:45:47.405Z,1162.3
2016-08-24T00:46:47.417Z,1162.12
2016-08-24T00:47:47.418Z,1162.08
2016-08-24T00:48:47.422Z,1162
2016-08-24T00:49:47.419Z,1161.88
2016-08-24T00:50:47.423Z,1161.84
2016-08-24T00:51:47.704Z,1161.75
2016-08-24T00:52:47.418Z,1161.7
2016-08-24T00:53:47.417Z,1161.67
2016-08-24T00:54:47.419Z,1161.57
2016-08-24T00:55:47.416Z,1161.62
2016-08-24T00:56:47.448Z,1161.56
2016-08-24T00:57:47.417Z,1161.53
2016-08-24T00:58:47.449Z,1161.43
2016-08-24T00:59:47.416Z,1161.27
2016-08-24T01:00:47.438Z,1161.42
2016-08-24T01:01:47.424Z,1161.21
2016-08-24T01:02:47.481Z,1161.17
2016-08-24T01:03:47.768Z,1161.15
2016-08-24T01:04:47.422Z,1160.97
2016-08-24T01:05:47.438Z,1160.89
2016-08-24T01:06:47.436Z,1160.87
2016-08-24T01:07:47.437Z,1160.8
2016-08-24T01:08:47.436Z,1160.66
2016-08-24T01:09:47.463Z,1160.65
2016-08-24T01:10:47.449Z,1160.67
2016-08-24T01:11:47.430Z,1160.61
2016-08-24T01:12:47.477Z,1160.53
2016-08-24T01:13:47.432Z,1160.33
2016-08-24T01:14:47.449Z,1160.28
2016-08-24T01:15:47.454Z,1160.16
2016-08-24T01:16:47.453Z,1160.16
2016-08-24T01:17:47.469Z,1160.15
2016-08-24T01:18:47.933Z,1160.1
2016-08-24T01:19:47.454Z,1160.11
2016-08-24T01:20:47.444Z,1160.18
2016-08-24T01:21:47.456Z,1160.12
2016-08-24T01:22:47.461Z,1160.01
2016-08-24T01:23:47.463Z,1160.01
2016-08-24T01:24:47.667Z,1160.02
2016-08-24T01:25:47.451Z,1159.89
2016-08-24T01:26:47.458Z,1159.89
2016-08-24T01:27:47.681Z,1159.9
2016-08-24T01:28:47.453Z,1159.83
2016-08-24T01:29:47.449Z,1159.85
2016-08-24T01:30:47.497Z,1159.72
2016-08-24T01:31:47.460Z,1159.63
2016-08-24T01:32:47.453Z,1159.7
2016-08-24T01:33:48.073Z,1159.6
2016-08-24T01:34:47.450Z,1159.42
2016-08-24T01:35:47.455Z,1159.61
2016-08-24T01:36:47.480Z,1159.49
2016-08-24T01:37:47.458Z,1159.46
2016-08-24T01:38:47.454Z,1159.41
2016-08-24T01:39:47.703Z,1159.35
2016-08-24T01:40:47.467Z,1159.34
2016-08-24T01:41:47.465Z,1159.26
2016-08-24T01:42:47.680Z,1159.15
2016-08-24T01:43:47.469Z,1159.2
2016-08-24T01:44:47.458Z,1159.11
2016-08-24T01:45:47.997Z,1159.14
2016-08-24T01:46:47.464Z,1159.14
2016-08-24T01:47:47.471Z,1159.14
2016-08-24T01:48:47.517Z,1159.14
2016-08-24T01:49:47.470Z,1159.02
2016-08-24T01:50:47.481Z,1159.09
2016-08-24T01:51:48.097Z,1159.15
2016-08-24T01:52:47.472Z,1159.16
2016-08-24T01:53:47.466Z,1159.09
2016-08-24T01:54:47.527Z,1158.95
2016-08-24T01:55:47.481Z,1158.89
2016-08-24T01:56:47.471Z,1158.84
2016-08-24T01:57:47.494Z,1158.73
2016-08-24T01:58:47.482Z,1158.71
2016-08-24T01:59:47.483Z,1158.71
2016-08-24T02:00:47.483Z,1158.53
2016-08-24T02:01:47.476Z,1158.51
2016-08-24T02:02:47.484Z,1158.27
2016-08-24T02:03:47.976Z,1158.2
2016-08-24T02:04:47.488Z,1158.15
2016-08-24T02:05:47.494Z,1157.98
2016-08-24T02:06:47.484Z,1157.9
2016-08-24T02:07:47.491Z,1157.87
2016-08-24T02:08:47.487Z,1157.82
2016-08-24T02:09:47.772Z,1157.93
2016-08-24T02:10:47.503Z,1157.87
2016-08-24T02:11:47.497Z,1157.74
2016-08-24T02:12:47.501Z,1157.65
2016-08-24T02:13:47.499Z,1157.69
2016-08-24T02:14:47.500Z,1157.56
2016-08-24T02:15:47.497Z,1157.61
2016-08-24T02:16:47.497Z,1157.36
2016-08-24T02:17:47.496Z,1157.38
2016-08-24T02:18:47.497Z,1157.15
2016-08-24T02:19:47.496Z,1157.09
2016-08-24T02:20:47.495Z,1157.01
2016-08-24T02:21:47.513Z,1156.97
2016-08-24T02:22:47.500Z,1156.8
2016-08-24T02:23:47.517Z,1156.8
2016-08-24T02:24:47.698Z,1156.73
2016-08-24T02:25:47.497Z,1156.66
2016-08-24T02:26:47.500Z,1156.52
2016-08-24T02:27:47.530Z,1156.55
2016-08-24T02:28:47.504Z,1156.39
2016-08-24T02:29:47.498Z,1156.28
2016-08-24T02:30:47.504Z,1156.23
2016-08-24T02:31:47.513Z,1156.19
2016-08-24T02:32:47.535Z,1156.18
2016-08-24T02:33:47.514Z,1156.2
2016-08-24T02:34:47.533Z,1156.23
2016-08-24T02:35:47.514Z,1156.19
2016-08-24T02:36:47.519Z,1156.1
2016-08-24T02:37:47.514Z,1156.06
2016-08-24T02:38:47.515Z,1156.11
2016-08-24T02:39:48.019Z,1155.95
2016-08-24T02:40:47.528Z,1156.03
2016-08-24T02:41:47.511Z,1156
2016-08-24T02:42:47.593Z,1155.79
2016-08-24T02:43:47.521Z,1155.73
2016-08-24T02:44:47.550Z,1155.45
2016-08-24T02:45:47.532Z,1155.43
2016-08-24T02:46:47.533Z,1155.27
2016-08-24T02:47:47.528Z,1155.26
2016-08-24T02:48:48.092Z,1155.08
2016-08-24T02:49:47.550Z,1155.17
2016-08-24T02:50:47.528Z,1154.96
2016-08-24T02:51:47.535Z,1154.91
2016-08-24T02:52:47.534Z,1154.58
2016-08-24T02:53:47.530Z,1154.72
2016-08-24T02:54:47.529Z,1154.44
2016-08-24T02:55:47.534Z,1154.38
2016-08-24T02:56:47.527Z,1154.32
2016-08-24T02:57:47.532Z,1154.32
2016-08-24T02:58:47.526Z,1154.15
2016-08-24T02:59:47.529Z,1154.23
2016-08-24T03:00:48.192Z,1154.11
2016-08-24T03:01:47.543Z,1153.79
2016-08-24T03:02:47.537Z,1153.87
2016-08-24T03:03:47.717Z,1153.75
2016-08-24T03:04:47.532Z,1153.78
2016-08-24T03:05:47.538Z,1153.57
2016-08-24T03:06:47.711Z,1153.63
2016-08-24T03:07:47.560Z,1153.7
2016-08-24T03:08:47.539Z,1153.65
2016-08-24T03:09:47.669Z,1153.56
2016-08-24T03:10:47.557Z,1153.33
2016-08-24T03:11:47.550Z,1153.37
2016-08-24T03:12:47.547Z,1153.24
2016-08-24T03:13:47.544Z,1153.09
2016-08-24T03:14:47.545Z,1153.11
2016-08-24T03:15:47.712Z,1153.07
2016-08-24T03:16:47.545Z,1153.04
2016-08-24T03:17:47.563Z,1152.82
2016-08-24T03:18:47.542Z,1152.91
2016-08-24T03:19:47.549Z,1152.88
2016-08-24T03:20:47.553Z,1152.77
2016-08-24T03:21:47.574Z,1152.68
2016-08-24T03:22:47.571Z,1152.65
2016-08-24T03:23:47.542Z,1152.83
2016-08-24T03:24:47.547Z,1152.85
2016-08-24T03:25:47.554Z,1152.85
2016-08-24T03:26:47.556Z,1152.97
2016-08-24T03:27:47.562Z,1152.89
2016-08-24T03:28:47.560Z,1152.93
2016-08-24T03:29:47.558Z,1152.76
2016-08-24T03:30:47.559Z,1152.6
2016-08-24T03:31:47.561Z,1152.67
2016-08-24T03:32:47.577Z,1152.63
2016-08-24T03:33:47.579Z,1152.58
2016-08-24T03:34:47.561Z,1152.58
2016-08-24T03:35:47.581Z,1152.43
2016-08-24T03:36:47.562Z,1152.49
2016-08-24T03:37:47.581Z,1152.5
2016-08-24T03:38:47.570Z,1152.42
2016-08-24T03:39:47.562Z,1152.31
2016-08-24T03:40:47.572Z,1152.27
2016-08-24T03:41:47.562Z,1152.21
2016-08-24T03:42:47.566Z,1152.17
2016-08-24T03:43:47.578Z,1152.19
2016-08-24T03:44:47.577Z,1152.02
2016-08-24T03:45:47.578Z,1151.95
2016-08-24T03:46:47.568Z,1151.85
2016-08-24T03:47:47.575Z,1151.53
2016-08-24T03:48:47.578Z,1151.46
2016-08-24T03:49:47.578Z,1151.33
2016-08-24T03:50:47.596Z,1151.04
2016-08-24T03:51:47.580Z,1151.11
2016-08-24T03:52:47.581Z,1151.02
2016-08-24T03:53:47.576Z,1151.14
2016-08-24T03:54:47.582Z,1151.01
2016-08-24T03:55:47.585Z,1150.97
2016-08-24T03:56:47.583Z,1150.99
2016-08-24T03:57:47.575Z,1150.98
2016-08-24T03:58:47.593Z,1150.96
2016-08-24T03:59:47.571Z,1150.87
2016-08-24T04:00:47.591Z,1150.72
2016-08-24T04:01:47.582Z,1150.53
2016-08-24T04:02:47.593Z,1150.29
2016-08-24T04:03:47.593Z,1150.08
2016-08-24T04:04:47.591Z,1150.03
2016-08-24T04:05:47.592Z,1149.74
2016-08-24T04:06:47.591Z,1149.71
2016-08-24T04:07:47.591Z,1149.27
2016-08-24T04:08:47.604Z,1149.23
2016-08-24T04:09:47.593Z,1149.01
2016-08-24T04:10:47.609Z,1148.94
2016-08-24T04:11:47.605Z,1149.06
2016-08-24T04:12:47.620Z,1148.84
2016-08-24T04:13:47.596Z,1148.63
2016-08-24T04:14:47.655Z,1148.46
2016-08-24T04:15:47.641Z,1148.26
2016-08-24T04:16:47.613Z,1147.91
2016-08-24T04:17:47.604Z,1147.73
2016-08-24T04:18:47.610Z,1147.63
2016-08-24T04:19:47.611Z,1147.45
2016-08-24T04:20:47.610Z,1147.14
2016-08-24T04:21:47.697Z,1147.01
2016-08-24T04:22:47.607Z,1147.05
2016-08-24T04:23:47.610Z,1147.03
2016-08-24T04:24:47.610Z,1146.78
2016-08-24T04:25:47.613Z,1146.89
2016-08-24T04:26:47.624Z,1146.84
2016-08-24T04:27:47.609Z,1146.94
2016-08-24T04:28:47.631Z,1147.01
2016-08-24T04:29:47.612Z,1147.1
2016-08-24T04:30:47.641Z,1147.3
2016-08-24T04:31:47.623Z,1147.58
2016-08-24T04:32:47.612Z,1147.52
2016-08-24T04:33:47.624Z,1147.78
2016-08-24T04:34:47.613Z,1148.11
2016-08-24T04:35:47.625Z,1148.39
2016-08-24T04:36:47.672Z,1148.46
2016-08-24T04:37:47.631Z,1148.58
2016-08-24T04:38:47.625Z,1148.74
2016-08-24T04:39:47.619Z,1148.77
2016-08-24T04:40:47.626Z,1149.02
2016-08-24T04:41:47.626Z,1148.93
2016-08-24T04:43:00.175Z,1148.96
2016-08-24T04:44:25.068Z,1149.15
2016-08-24T04:45:49.146Z,1149.24
2016-08-24T04:47:12.500Z,1149.04
2016-08-24T04:48:36.342Z,1149.16
2016-08-24T04:49:58.307Z,1149.12
2016-08-24T04:51:21.368Z,1149.04
2016-08-24T04:52:43.521Z,1149.05
2016-08-24T04:54:05.232Z,1148.96
2016-08-24T04:55:27.984Z,1149.09
2016-08-24T04:56:49.841Z,1149.19
2016-08-24T04:57:50.330Z,1149.18
2016-08-24T04:58:50.369Z,1149.19
2016-08-24T04:59:50.325Z,1149.36
2016-08-24T05:00:50.317Z,1149.34
2016-08-24T05:01:50.404Z,1149.34
2016-08-24T05:02:50.329Z,1149.44
2016-08-24T05:03:50.324Z,1149.67
2016-08-24T05:04:50.344Z,1149.79
2016-08-24T05:05:50.342Z,1149.74
2016-08-24T05:06:50.330Z,1149.9
2016-08-24T05:07:50.343Z,1150.01
2016-08-24T05:08:50.384Z,1150.23
2016-08-24T05:09:50.345Z,1150.41
2016-08-24T05:10:50.329Z,1150.69
2016-08-24T05:11:50.349Z,1150.79
2016-08-24T05:12:50.343Z,1151.04
2016-08-24T05:13:50.341Z,1151.3
2016-08-24T05:14:50.333Z,1151.44
2016-08-24T05:15:50.346Z,1151.71
2016-08-24T05:16:50.343Z,1151.97
2016-08-24T05:17:50.346Z,1152.16
2016-08-24T05:18:50.346Z,1152.36
2016-08-24T05:19:50.346Z,1152.6
2016-08-24T05:20:50.341Z,1152.74
2016-08-24T05:21:50.376Z,1153.03
2016-08-24T05:22:50.345Z,1153.25
2016-08-24T05:23:50.978Z,1153.48
2016-08-24T05:24:50.351Z,1153.68
2016-08-24T05:25:50.348Z,1153.91
2016-08-24T05:26:50.358Z,1154.27
2016-08-24T05:27:50.342Z,1154.47
2016-08-24T05:28:50.349Z,1154.79
2016-08-24T05:29:50.342Z,1155.09
2016-08-24T05:30:50.349Z,1155.48
2016-08-24T05:31:50.342Z,1155.79
2016-08-24T05:32:50.349Z,1156.08
2016-08-24T05:33:50.359Z,1156.48
2016-08-24T05:35:02.773Z,1156.75
2016-08-24T05:36:26.736Z,1157.12
2016-08-24T05:37:50.442Z,1157.43
2016-08-24T05:39:13.787Z,1158
2016-08-24T05:40:37.485Z,1158.41
2016-08-24T05:42:00.705Z,1158.83
2016-08-24T05:43:23.698Z,1159.33
2016-08-24T05:44:45.792Z,1159.68
2016-08-24T05:46:07.110Z,1160.03
2016-08-24T05:47:32.132Z,1160.46
2016-08-24T05:48:53.698Z,1160.79
2016-08-24T05:49:41.406Z,1161.11
2016-08-24T05:50:41.406Z,1161.47
2016-08-24T05:51:41.412Z,1161.79
2016-08-24T05:52:41.410Z,1161.97
2016-08-24T05:53:41.413Z,1162.14
2016-08-24T05:54:41.420Z,1162.51
2016-08-24T05:55:41.406Z,1162.72
2016-08-24T05:56:41.402Z,1162.87
2016-08-24T05:57:41.405Z,1163.22
2016-08-24T05:58:41.418Z,1163.52
2016-08-24T05:59:41.419Z,1163.68
2016-08-24T06:00:41.426Z,1164.02
2016-08-24T06:01:41.410Z,1164.28
2016-08-24T06:02:41.428Z,1164.45
2016-08-24T06:03:41.418Z,1164.81
2016-08-24T06:04:41.421Z,1165.11
2016-08-24T06:05:41.421Z,1165.23
2016-08-24T06:06:41.424Z,1165.51
2016-08-24T06:07:41.421Z,1165.88
2016-08-24T06:08:41.419Z,1166.23
2016-08-24T06:09:41.420Z,1166.41
2016-08-24T06:10:41.437Z,1166.56
2016-08-24T06:11:41.441Z,1166.82
2016-08-24T06:12:41.423Z,1167.08
2016-08-24T06:13:41.447Z,1167.26
2016-08-24T06:14:41.436Z,1167.47
2016-08-24T06:15:41.442Z,1167.67
2016-08-24T06:16:41.436Z,1167.86
2016-08-24T06:17:41.439Z,1167.97
2016-08-24T06:18:41.443Z,1168.14
2016-08-24T06:19:41.430Z,1168.23
2016-08-24T06:20:41.453Z,1168.33
2016-08-24T06:21:41.452Z,1168.45
2016-08-24T06:22:41.448Z,1168.54
2016-08-24T06:23:41.442Z,1168.6
2016-08-24T06:24:41.438Z,1168.66
2016-08-24T06:25:41.427Z,1168.65
2016-08-24T06:26:41.438Z,1168.7
2016-08-24T06:27:41.443Z,1168.69
2016-08-24T06:28:41.480Z,1168.67
2016-08-24T06:29:41.438Z,1168.58
2016-08-24T06:30:41.451Z,1168.51
2016-08-24T06:31:41.442Z,1168.41
2016-08-24T06:32:41.455Z,1168.3
2016-08-24T06:33:41.484Z,1168.21
2016-08-24T06:34:41.520Z,1168.07
2016-08-24T06:35:41.469Z,1167.98
2016-08-24T06:36:41.468Z,1167.84
2016-08-24T06:37:41.446Z,1167.71
2016-08-24T06:38:41.460Z,1167.58
2016-08-24T06:39:41.454Z,1167.39
2016-08-24T06:40:41.458Z,1167.2
2016-08-24T06:41:41.452Z,1167.03
2016-08-24T06:42:41.459Z,1166.78
2016-08-24T06:43:41.456Z,1166.57
2016-08-24T06:44:41.458Z,1166.39
2016-08-24T06:45:41.455Z,1166.19
2016-08-24T06:46:41.474Z,1165.95
2016-08-24T06:47:41.454Z,1165.59
2016-08-24T06:48:41.453Z,1165.35
2016-08-24T06:49:41.458Z,1165.11
2016-08-24T06:50:41.454Z,1164.81
2016-08-24T06:51:41.469Z,1164.58
2016-08-24T06:52:41.467Z,1164.29
2016-08-24T06:53:41.475Z,1164.04
2016-08-24T06:54:41.466Z,1163.78
2016-08-24T06:55:41.486Z,1163.52
2016-08-24T06:56:41.494Z,1163.25
2016-08-24T06:57:41.482Z,1162.96
2016-08-24T06:58:41.471Z,1162.65
2016-08-24T06:59:41.473Z,1162.37
2016-08-24T07:00:41.499Z,1161.93
2016-08-24T07:01:41.478Z,1161.65
2016-08-24T07:02:41.484Z,1161.28
2016-08-24T07:03:41.545Z,1160.84
2016-08-24T07:04:41.580Z,1160.36
2016-08-24T07:05:41.471Z,1159.87
2016-08-24T07:06:41.493Z,1159.53
2016-08-24T07:07:41.660Z,1159.06
2016-08-24T07:08:41.483Z,1158.78
2016-08-24T07:09:41.479Z,1158.36
2016-08-24T07:10:41.470Z,1157.99
2016-08-24T07:11:41.481Z,1157.63
2016-08-24T07:12:41.486Z,1157.3
2016-08-24T07:13:41.493Z,1156.89
2016-08-24T07:14:41.486Z,1156.56
2016-08-24T07:15:41.492Z,1156.14
2016-08-24T07:16:41.484Z,1155.61
2016-08-24T07:17:41.507Z,1155.25
2016-08-24T07:18:41.485Z,1154.84
2016-08-24T07:19:41.492Z,1154.41
2016-08-24T07:20:41.489Z,1153.9
2016-08-24T07:21:41.488Z,1153.36
2016-08-24T07:22:41.534Z,1152.8
2016-08-24T07:23:41.501Z,1152.24
2016-08-24T07:24:41.499Z,1151.49
2016-08-24T07:25:41.501Z,1150.61
2016-08-24T07:26:41.505Z,1149.98
2016-08-24T07:27:41.497Z,1149.11
2016-08-24T07:28:41.505Z,1148.2
2016-08-24T07:29:41.561Z,1147.33
2016-08-24T07:30:41.504Z,1146.17
2016-08-24T07:31:41.547Z,1145.26
2016-08-24T07:32:41.524Z,1144.28
2016-08-24T07:33:41.510Z,1143.27
2016-08-24T07:34:41.527Z,1141.92
2016-08-24T07:35:41.514Z,1140.59
2016-08-24T07:36:41.515Z,1139.33
2016-08-24T07:37:41.519Z,1137.85
2016-08-24T07:38:41.514Z,1136.33
2016-08-24T07:39:41.507Z,1134.44
2016-08-24T07:40:41.504Z,1133.01
2016-08-24T07:41:41.521Z,1131.74
2016-08-24T07:42:41.525Z,1130.21
2016-08-24T07:43:41.516Z,1128.6
2016-08-24T07:44:41.559Z,1127.02
2016-08-24T07:45:41.520Z,1125.42
2016-08-24T07:46:42.187Z,1123.4
2016-08-24T07:47:41.518Z,1121.46
2016-08-24T07:48:41.520Z,1119.76
2016-08-24T07:49:41.517Z,1117.92
2016-08-24T07:50:41.520Z,1116.31
2016-08-24T07:51:41.530Z,1114.57
2016-08-24T07:52:41.626Z,1112.95
2016-08-24T07:53:41.520Z,1111.42
2016-08-24T07:54:41.525Z,1110.09
2016-08-24T07:55:41.532Z,1108.74
2016-08-24T07:56:41.539Z,1107.6
2016-08-24T07:57:41.527Z,1106.28
2016-08-24T07:58:41.524Z,1104.99
2016-08-24T07:59:41.533Z,1104.02
2016-08-24T08:00:41.534Z,1102.82
2016-08-24T08:01:41.526Z,1101.65
2016-08-24T08:02:41.533Z,1100.31
2016-08-24T08:03:41.530Z,1098.63
2016-08-24T08:04:41.580Z,1097.49
2016-08-24T08:05:41.538Z,1096.02
2016-08-24T08:06:41.592Z,1094.36
2016-08-24T08:07:41.555Z,1093.14
2016-08-24T08:08:41.546Z,1091.9
2016-08-24T08:09:41.535Z,1090.47
2016-08-24T08:10:41.542Z,1089.18
2016-08-24T08:11:41.558Z,1087.92
2016-08-24T08:12:41.569Z,1086.19
2016-08-24T08:13:41.548Z,1084.87
2016-08-24T08:14:41.549Z,1083.33
2016-08-24T08:15:41.554Z,1082.18
2016-08-24T08:16:41.554Z,1080.66
2016-08-24T08:17:41.561Z,1079.2
2016-08-24T08:18:41.548Z,1077.94
2016-08-24T08:19:41.557Z,1076.89
2016-08-24T08:20:41.572Z,1076.02
2016-08-24T08:21:41.582Z,1074.82
2016-08-24T08:22:41.631Z,1073.64
2016-08-24T08:23:41.568Z,1072.51
2016-08-24T08:24:41.973Z,1071.42
2016-08-24T08:25:41.567Z,1070.48
2016-08-24T08:26:41.578Z,1068.98
2016-08-24T08:27:41.594Z,1067.97
2016-08-24T08:28:41.574Z,1066.66
2016-08-24T08:29:41.565Z,1065.56
2016-08-24T08:30:41.570Z,1064.35
2016-08-24T08:31:41.569Z,1062.98
2016-08-24T08:32:41.561Z,1062.02
2016-08-24T08:33:41.603Z,1061.01
2016-08-24T08:34:41.605Z,1059.9
2016-08-24T08:35:41.591Z,1059.2
2016-08-24T08:36:41.562Z,1058.09
2016-08-24T08:37:41.589Z,1057.22
2016-08-24T08:38:41.567Z,1055.9
2016-08-24T08:39:41.591Z,1055.01
2016-08-24T08:40:41.569Z,1053.76
2016-08-24T08:41:41.595Z,1052.54
2016-08-24T08:42:41.597Z,1051.65
2016-08-24T08:43:41.582Z,1051.01
2016-08-24T08:44:41.653Z,1050.36
2016-08-24T08:45:41.597Z,1049.47
2016-08-24T08:46:41.588Z,1048.87
2016-08-24T08:47:41.595Z,1047.85
2016-08-24T08:48:41.587Z,1046.67
2016-08-24T08:49:41.581Z,1045.37
2016-08-24T08:50:41.601Z,1044.48
2016-08-24T08:51:41.624Z,1044.35
2016-08-24T08:52:41.625Z,1043.1
2016-08-24T08:53:41.596Z,1042.43
2016-08-24T08:54:41.578Z,1041.32
2016-08-24T08:55:41.609Z,1040.25
2016-08-24T08:56:41.596Z,1039.26
2016-08-24T08:57:41.591Z,1038.31
2016-08-24T08:58:41.594Z,1037.65
2016-08-24T08:59:41.598Z,1036.56
2016-08-24T09:00:41.589Z,1035.73
2016-08-24T09:01:41.612Z,1034.83
2016-08-24T09:02:41.613Z,1033.34
2016-08-24T09:03:41.596Z,1032.47
2016-08-24T09:04:41.610Z,1031.91
2016-08-24T09:05:41.597Z,1031.02
2016-08-24T09:06:41.597Z,1029.79
2016-08-24T09:07:41.619Z,1028.88
2016-08-24T09:08:41.612Z,1027.78
2016-08-24T09:09:41.603Z,1026.73
2016-08-24T09:10:41.597Z,1025.33
2016-08-24T09:11:41.604Z,1024.59
2016-08-24T09:12:41.605Z,1022.62
2016-08-24T09:13:41.600Z,1021.25
2016-08-24T09:14:41.609Z,1020.16
2016-08-24T09:15:41.614Z,1019.17
2016-08-24T09:16:41.607Z,1017.88
2016-08-24T09:17:41.613Z,1016.7
2016-08-24T09:18:41.630Z,1015.18
2016-08-24T09:19:41.622Z,1014.16
2016-08-24T09:20:41.615Z,1013
2016-08-24T09:21:41.614Z,1011.65
2016-08-24T09:22:41.617Z,1010.86
2016-08-24T09:23:41.635Z,1009.91
2016-08-24T09:24:41.616Z,1008.35
2016-08-24T09:25:41.627Z,1007.42
2016-08-24T09:26:41.628Z,1005.97
2016-08-24T09:27:41.625Z,1004.57
2016-08-24T09:28:41.652Z,1003.29
2016-08-24T09:29:41.642Z,1001.68
2016-08-24T09:30:41.625Z,1000.81
2016-08-24T09:31:41.630Z,999.3
2016-08-24T09:32:41.639Z,998.21
2016-08-24T09:33:41.653Z,996.2
2016-08-24T09:34:41.629Z,995.2
2016-08-24T09:35:41.635Z,993.71
2016-08-24T09:36:41.636Z,992.36
2016-08-24T09:37:41.649Z,990.74
2016-08-24T09:38:41.638Z,989.67
2016-08-24T09:39:41.663Z,988.41
2016-08-24T09:40:41.647Z,986.93
2016-08-24T09:41:41.657Z,985.81
2016-08-24T09:42:41.702Z,984.39
2016-08-24T09:43:41.658Z,982.94
2016-08-24T09:44:41.674Z,981.6
2016-08-24T09:45:41.665Z,979.79
2016-08-24T09:46:41.644Z,978.42
2016-08-24T09:47:41.653Z,976.73
2016-08-24T09:48:41.651Z,974.87
2016-08-24T09:49:41.654Z,973.53
2016-08-24T09:50:41.671Z,971.79
2016-08-24T09:51:41.671Z,970.21
2016-08-24T09:52:41.650Z,968.55
2016-08-24T09:53:41.646Z,966.81
2016-08-24T09:54:41.649Z,965.42
2016-08-24T09:55:41.655Z,964.33
2016-08-24T09:56:41.662Z,963.41
2016-08-24T09:57:41.674Z,962.71
2016-08-24T09:58:41.659Z,961.66
2016-08-24T09:59:41.650Z,960.69
2016-08-24T10:00:41.689Z,959.77
2016-08-24T10:01:41.666Z,958.28
2016-08-24T10:02:41.672Z,957.08
2016-08-24T10:03:41.676Z,956.11
2016-08-24T10:04:41.678Z,954.73
2016-08-24T10:05:41.665Z,953.18
2016-08-24T10:06:41.681Z,950.89
2016-08-24T10:07:41.660Z,949.44
2016-08-24T10:08:41.671Z,947.84
2016-08-24T10:09:41.674Z,946.26
2016-08-24T10:10:41.672Z,945.04
2016-08-24T10:11:41.721Z,943.29
2016-08-24T10:12:41.682Z,942.43
2016-08-24T10:13:41.705Z,940.69
2016-08-24T10:14:41.666Z,939.23
2016-08-24T10:15:41.673Z,937.19
2016-08-24T10:16:41.693Z,935.17
2016-08-24T10:17:41.693Z,933.16
2016-08-24T10:18:41.739Z,931.37
2016-08-24T10:19:41.685Z,930.01
2016-08-24T10:20:41.676Z,928.72
2016-08-24T10:21:41.683Z,927.07
2016-08-24T10:22:41.691Z,925.77
2016-08-24T10:23:41.697Z,924.36
2016-08-24T10:24:41.690Z,923.09
2016-08-24T10:25:41.691Z,921.67
2016-08-24T10:26:41.713Z,919.84
2016-08-24T10:27:41.727Z,918.03
2016-08-24T10:28:42.207Z,916.32
2016-08-24T10:29:41.692Z,914.85
2016-08-24T10:30:41.709Z,913.65
2016-08-24T10:31:41.709Z,911.82
2016-08-24T10:32:41.693Z,910.23
2016-08-24T10:33:41.701Z,909.05
2016-08-24T10:34:41.690Z,907.69
2016-08-24T10:35:41.698Z,905.59
2016-08-24T10:36:41.709Z,904.1
2016-08-24T10:37:41.698Z,902.76
2016-08-24T10:38:41.706Z,901.24
2016-08-24T10:39:41.710Z,900.01
2016-08-24T10:40:41.720Z,898.85
2016-08-24T10:41:41.709Z,897.86
2016-08-24T10:42:41.700Z,897.19
2016-08-24T10:43:41.707Z,896.86
2016-08-24T10:44:41.827Z,895.63
2016-08-24T10:45:41.723Z,894.94
2016-08-24T10:46:42.345Z,894.39
2016-08-24T10:47:41.706Z,893.59
2016-08-24T10:48:41.708Z,893.44
2016-08-24T10:49:41.715Z,892.5
2016-08-24T10:50:41.726Z,891.66
2016-08-24T10:51:41.714Z,890.42
2016-08-24T10:52:41.715Z,888.62
2016-08-24T10:53:41.720Z,887.79
2016-08-24T10:54:41.709Z,886.77
2016-08-24T10:55:41.714Z,885.02
2016-08-24T10:56:41.722Z,883.63
2016-08-24T10:57:41.959Z,882.73
2016-08-24T10:58:41.926Z,881.65
2016-08-24T10:59:41.743Z,880.83
2016-08-24T11:00:41.720Z,880.13
2016-08-24T11:01:41.727Z,879.53
2016-08-24T11:02:41.727Z,879.09
2016-08-24T11:03:42.509Z,878.15
2016-08-24T11:04:41.723Z,877.14
2016-08-24T11:05:41.726Z,875.07
2016-08-24T11:06:41.732Z,874.17
2016-08-24T11:07:41.743Z,873.34
2016-08-24T11:08:41.734Z,872.47
2016-08-24T11:09:41.724Z,871.51
2016-08-24T11:10:41.743Z,870.21
2016-08-24T11:11:41.820Z,869.38
2016-08-24T11:12:41.755Z,868.38
2016-08-24T11:13:41.750Z,867.11
2016-08-24T11:14:41.770Z,866.25
2016-08-24T11:15:41.772Z,865.67
2016-08-24T11:16:41.863Z,865.06
2016-08-24T11:17:41.744Z,864.02
2016-08-24T11:18:41.743Z,863.63
2016-08-24T11:19:41.775Z,863.18
2016-08-24T11:20:41.768Z,862.33
2016-08-24T11:21:41.760Z,861.05
2016-08-24T11:22:41.953Z,859.63
2016-08-24T11:23:41.756Z,858.57
2016-08-24T11:24:41.760Z,856.86
2016-08-24T11:25:43.942Z,855.55
2016-08-24T11:26:42.570Z,854.8
2016-08-24T11:27:41.932Z,853.92
2016-08-24T11:28:41.753Z,853.18
2016-08-24T11:29:45.255Z,852
2016-08-24T11:30:41.837Z,851.12
2016-08-24T11:32:42.707Z,848.48
2016-08-24T11:33:41.759Z,846.99
2016-08-24T11:34:41.761Z,845.7
2016-08-24T11:35:41.783Z,844.94
2016-08-24T11:36:41.759Z,843.79
2016-08-24T11:37:41.766Z,842.15
2016-08-24T11:38:42.316Z,841.25
2016-08-24T11:39:41.855Z,840.8
2016-08-24T11:40:43.829Z,839.45
2016-08-24T11:41:41.799Z,838.4
2016-08-24T11:42:41.869Z,837.5
2016-08-24T11:43:41.770Z,836.42
2016-08-24T11:44:41.774Z,835.36
2016-08-24T11:45:44.419Z,834.59
2016-08-24T11:46:41.784Z,833.96
2016-08-24T11:47:41.985Z,833.25
2016-08-24T11:48:42.050Z,831.87
2016-08-24T11:49:41.802Z,830.66
2016-08-24T11:50:42.615Z,829.3
2016-08-24T11:51:41.785Z,828.53
2016-08-24T11:52:43.378Z,826.1
2016-08-24T11:53:41.799Z,825.01
2016-08-24T11:54:42.026Z,823.35
2016-08-24T11:55:44.707Z,821.69
2016-08-24T11:56:42.130Z,819.87
2016-08-24T11:57:41.939Z,818.19
2016-08-24T11:58:43.711Z,816.5
2016-08-24T11:59:41.937Z,815.25
2016-08-24T12:00:41.802Z,814.03
2016-08-24T12:01:41.788Z,813.08
2016-08-24T12:02:41.792Z,812.18
2016-08-24T12:03:41.812Z,811.95
2016-08-24T12:04:41.801Z,810.9
2016-08-24T12:05:41.817Z,811.17
2016-08-24T12:06:41.822Z,809.62
2016-08-24T12:07:41.808Z,809.44
2016-08-24T12:08:41.818Z,808.54
2016-08-24T12:09:43.408Z,807.46
2016-08-24T12:10:43.370Z,806.38
2016-08-24T12:11:42.082Z,805.58
2016-08-24T12:12:41.876Z,804
2016-08-24T12:13:41.865Z,802.9
2016-08-24T12:14:41.855Z,802.59
2016-08-24T12:15:42.455Z,802.25
2016-08-24T12:16:41.799Z,800.87
2016-08-24T12:17:41.862Z,799.9
2016-08-24T12:18:41.838Z,799.42
2016-08-24T12:19:41.806Z,798.64
2016-08-24T12:20:41.811Z,797.88
2016-08-24T12:21:41.833Z,797.71
2016-08-24T12:22:41.834Z,797.02